Time;durP1;ratioP1;P1;durP2;ratioP2;P2;SDS_P1;SDS_P2;PMS_P1;PMS_P2;Temp;Humidity;BMP_temperature;BMP_pressure;BME280_temperature;BME280_humidity;BME280_pressure;Samples;Min_cycle;Max_cycle;Signal;HPM_P1;HPM_P2
2022/11/14 00:09:08;;;;;;;1999.90;999.90;;;4.60;99.90;;;;;;6666469;88;20216;-80
2022/11/14 00:19:09;;;;;;;1999.90;999.90;;;4.50;99.90;;;;;;6664425;88;20706;-80
2022/11/14 00:29:14;;;;;;;1999.90;999.90;;;4.40;99.90;;;;;;6663292;88;20192;-81
2022/11/14 00:39:14;;;;;;;1999.90;999.90;;;4.40;99.90;;;;;;6662839;88;20817;-79
2022/11/14 00:49:15;;;;;;;1999.90;999.90;;;4.30;99.90;;;;;;6662634;88;20192;-81
2022/11/14 00:59:15;;;;;;;1999.90;999.90;;;4.30;99.90;;;;;;6662712;88;20242;-81
2022/11/14 01:09:16;;;;;;;1999.90;999.90;;;4.30;99.90;;;;;;6663305;88;20210;-81
2022/11/14 01:19:16;;;;;;;1999.90;999.90;;;4.30;99.90;;;;;;6668600;88;20211;-81
2022/11/14 01:29:17;;;;;;;1999.90;999.90;;;4.60;99.90;;;;;;6683469;88;20191;-80
2022/11/14 01:39:17;;;;;;;1999.90;999.90;;;4.50;99.90;;;;;;6682800;88;20187;-80
2022/11/14 01:49:59;;;;;;;1999.90;999.90;;;4.30;99.90;;;;;;6697693;78;20271;-79
2022/11/14 02:00:03;;;;;;;1999.90;999.90;;;4.40;99.90;;;;;;6759648;87;20205;-79
2022/11/14 02:10:13;;;;;;;1999.90;999.90;;;4.20;99.90;;;;;;6738093;88;20193;-80
2022/11/14 02:20:22;;;;;;;1999.90;999.90;;;4.10;99.90;;;;;;6714664;88;20192;-81
2022/11/14 02:30:23;;;;;;;1999.90;999.90;;;4.10;99.90;;;;;;6703636;88;20207;-80
2022/11/14 02:40:23;;;;;;;1999.90;999.90;;;4.00;99.90;;;;;;6702497;88;20223;-79
2022/11/14 02:50:24;;;;;;;1999.90;999.90;;;4.10;99.90;;;;;;6735733;88;20278;-79
2022/11/14 03:00:25;;;;;;;1999.90;999.90;;;4.00;99.90;;;;;;6743806;88;20201;-80
2022/11/14 03:10:25;;;;;;;1999.90;999.90;;;4.00;99.90;;;;;;6743779;88;20196;-79
2022/11/14 03:20:26;;;;;;;1999.90;999.90;;;3.90;99.90;;;;;;6741312;88;20617;-79
2022/11/14 03:30:26;;;;;;;1999.90;999.90;;;3.80;99.90;;;;;;6741034;88;20503;-77
2022/11/14 03:40:27;;;;;;;1999.90;999.90;;;3.70;99.90;;;;;;6739824;88;20774;-78
2022/11/14 03:50:27;;;;;;;1999.90;999.90;;;3.50;99.90;;;;;;6720600;88;20879;-78
2022/11/14 04:00:28;;;;;;;1999.90;999.90;;;3.30;99.90;;;;;;6716281;88;20276;-78
2022/11/14 04:10:29;;;;;;;1999.90;999.90;;;3.30;99.90;;;;;;6732352;88;20185;-78
2022/11/14 04:20:29;;;;;;;1999.90;999.90;;;3.10;99.90;;;;;;6746584;88;20270;-78
2022/11/14 04:30:30;;;;;;;1999.90;999.90;;;3.10;99.90;;;;;;6738725;88;20218;-78
2022/11/14 04:40:30;;;;;;;1999.90;999.90;;;3.00;99.90;;;;;;6735385;88;21059;-78
2022/11/14 04:50:31;;;;;;;1999.90;999.90;;;2.90;99.90;;;;;;6734314;88;20613;-79
2022/11/14 05:00:32;;;;;;;1999.90;999.90;;;2.90;99.90;;;;;;6751288;88;20199;-78
2022/11/14 05:10:32;;;;;;;1999.90;999.90;;;2.90;99.90;;;;;;6755108;88;20510;-78
2022/11/14 05:20:33;;;;;;;1999.90;999.90;;;3.00;99.90;;;;;;6753863;88;20199;-79
2022/11/14 05:30:33;;;;;;;1999.90;999.90;;;2.80;99.90;;;;;;6754259;88;20192;-79
2022/11/14 05:40:34;;;;;;;1999.90;999.90;;;2.70;99.90;;;;;;6750169;88;20290;-79
2022/11/14 05:50:34;;;;;;;1999.90;999.90;;;2.60;99.90;;;;;;6715111;88;20653;-78
2022/11/14 06:00:35;;;;;;;1999.90;999.90;;;2.70;99.90;;;;;;6709386;88;20229;-79
2022/11/14 06:10:35;;;;;;;1999.90;999.90;;;2.90;99.90;;;;;;6715533;88;20203;-78
2022/11/14 06:20:36;;;;;;;1999.90;999.90;;;3.20;99.90;;;;;;6743697;88;20212;-79
2022/11/14 06:30:38;;;;;;;1999.90;999.90;;;3.50;99.90;;;;;;6754464;88;20200;-79
2022/11/14 06:40:38;;;;;;;1999.90;999.90;;;3.90;99.90;;;;;;6750728;88;20221;-79
2022/11/14 06:50:39;;;;;;;1999.90;999.90;;;4.00;99.90;;;;;;6740849;88;20224;-78
2022/11/14 07:00:39;;;;;;;1999.90;999.90;;;4.20;99.90;;;;;;6750852;88;20227;-79
2022/11/14 07:10:40;;;;;;;1999.90;999.90;;;4.50;99.90;;;;;;6763131;87;20207;-79
2022/11/14 07:20:40;;;;;;;1999.90;999.90;;;4.60;99.90;;;;;;6771022;87;20200;-79
2022/11/14 07:30:41;;;;;;;1999.90;999.90;;;5.00;99.90;;;;;;6769760;88;20188;-80
2022/11/14 07:40:41;;;;;;;1999.90;999.90;;;5.60;99.90;;;;;;6776501;88;20726;-80
2022/11/14 07:51:04;;;;;;;1999.90;999.90;;;5.80;99.90;;;;;;6736417;76;20251;-77
2022/11/14 08:01:06;;;;;;;1999.90;999.90;;;6.00;99.90;;;;;;6718137;88;20201;-77
2022/11/14 08:11:07;;;;;;;1999.90;999.90;;;6.10;99.90;;;;;;6716632;88;20216;-78
2022/11/14 08:21:07;;;;;;;1999.90;999.90;;;6.30;99.90;;;;;;6673836;88;20699;-78
2022/11/14 08:31:09;;;;;;;1999.90;999.90;;;6.40;99.90;;;;;;6666910;88;20338;-80
2022/11/14 08:41:10;;;;;;;1999.90;999.90;;;6.40;99.90;;;;;;6693548;88;20189;-79
2022/11/14 08:51:10;;;;;;;1999.90;999.90;;;6.40;99.90;;;;;;6662976;88;20723;-79
2022/11/14 09:01:11;;;;;;;1999.90;999.90;;;6.50;99.90;;;;;;6680397;88;20192;-77
2022/11/14 09:11:12;;;;;;;1999.90;999.90;;;6.60;99.90;;;;;;6661607;88;20235;-78
2022/11/14 09:21:12;;;;;;;1999.90;999.90;;;6.60;99.90;;;;;;6655245;88;21131;-79
2022/11/14 09:31:13;;;;;;;1999.90;999.90;;;6.80;99.90;;;;;;6653793;88;20237;-78
2022/11/14 09:41:24;;;;;;;1999.90;999.90;;;6.90;99.90;;;;;;6669502;88;20196;-78
2022/11/14 09:51:32;;;;;;;1999.90;999.90;;;6.90;99.90;;;;;;6685376;88;20377;-77
2022/11/14 10:01:48;;;;;;;1999.90;999.90;;;6.90;99.90;;;;;;6667139;88;20216;-80
2022/11/14 10:11:58;;;;;;;1999.90;999.90;;;7.10;99.90;;;;;;6694222;88;20316;-78
2022/11/14 10:22:25;;;;;;;1999.90;999.90;;;7.20;99.90;;;;;;6664320;88;20710;-79
2022/11/14 10:32:41;;;;;;;1999.90;999.90;;;7.40;99.90;;;;;;6647194;88;20205;-79
2022/11/14 10:42:45;;;;;;;1999.90;999.90;;;7.40;99.90;;;;;;6653150;88;20200;-79
2022/11/14 10:52:48;;;;;;;1999.90;999.90;;;7.50;99.90;;;;;;6706321;88;20206;-80
2022/11/14 11:02:56;;;;;;;1999.90;999.90;;;7.60;99.90;;;;;;6680683;88;20287;-81
2022/11/14 11:12:57;;;;;;;1999.90;999.90;;;7.70;99.90;;;;;;6672315;88;20634;-80
2022/11/14 11:23:03;;;;;;;1999.90;999.90;;;7.80;99.90;;;;;;6671327;88;20216;-82
2022/11/14 11:44:11;;;;;;;1999.90;999.90;;;7.90;99.90;;;;;;6726189;88;20665;-79
2022/11/14 11:54:17;;;;;;;1999.90;999.90;;;7.90;99.90;;;;;;6732474;88;20639;-80
2022/11/14 12:04:18;;;;;;;1999.90;999.90;;;8.20;99.90;;;;;;6733616;88;20158;-84
2022/11/14 12:14:59;;;;;;;1999.90;999.90;;;8.40;99.90;;;;;;6782726;76;20724;-83
2022/11/14 12:25:20;;;;;;;1999.90;999.90;;;8.50;99.90;;;;;;6681759;88;20165;-82
2022/11/14 12:35:29;;;;;;;1999.90;999.90;;;8.40;99.90;;;;;;6664397;88;22565;-80
2022/11/14 13:46:19;;;;;;;1999.90;999.90;;;8.50;99.90;;;;;;7390351;76;20321;-79
2022/11/14 13:56:55;;;;;;;1999.90;999.90;;;8.50;99.90;;;;;;6748789;87;20181;-78
2022/11/14 14:07:20;;;;;;;1999.90;999.90;;;8.50;99.90;;;;;;6718976;88;20190;-78
2022/11/14 14:17:56;;;;;;;1999.90;999.90;;;8.60;99.90;;;;;;6740704;88;20197;-80
2022/11/14 14:28:08;;;;;;;1999.90;999.90;;;8.70;99.90;;;;;;6754322;88;20220;-78
2022/11/14 14:38:20;;;;;;;1999.90;999.90;;;8.70;99.90;;;;;;6736954;88;20295;-78
2022/11/14 14:48:25;;;;;;;1999.90;999.90;;;8.60;99.90;;;;;;6735954;88;20203;-78
2022/11/14 14:58:29;;;;;;;1999.90;999.90;;;8.80;99.90;;;;;;6736317;88;20671;-77
2022/11/14 15:08:36;;;;;;;1999.90;999.90;;;8.70;99.90;;;;;;6731266;88;20575;-77
2022/11/14 15:18:37;;;;;;;1999.90;999.90;;;8.70;99.90;;;;;;6737865;88;20235;-78
2022/11/14 15:28:37;;;;;;;1999.90;999.90;;;8.70;99.90;;;;;;6731002;88;20659;-76
2022/11/14 15:38:38;;;;;;;1999.90;999.90;;;8.70;99.90;;;;;;6730050;88;20245;-75
2022/11/14 15:48:40;;;;;;;1999.90;999.90;;;8.80;99.90;;;;;;6731270;88;20201;-76
2022/11/14 15:58:40;;;;;;;1999.90;999.90;;;8.70;99.90;;;;;;6735495;88;20214;-75
2022/11/14 16:08:41;;;;;;;1999.90;999.90;;;8.80;99.90;;;;;;6731286;88;20289;-75
2022/11/14 16:18:41;;;;;;;1999.90;999.90;;;8.70;99.90;;;;;;6727277;88;20255;-75
2022/11/14 16:28:42;;;;;;;1999.90;999.90;;;8.70;99.90;;;;;;6728564;88;20194;-76
2022/11/14 16:38:42;;;;;;;1999.90;999.90;;;8.80;99.90;;;;;;6738608;88;20746;-76
2022/11/14 16:48:43;;;;;;;1999.90;999.90;;;8.80;99.90;;;;;;6743713;87;20200;-76
2022/11/14 16:58:43;;;;;;;1999.90;999.90;;;8.80;99.90;;;;;;6726418;88;20174;-76
2022/11/14 17:08:44;;;;;;;1999.90;999.90;;;8.80;99.90;;;;;;6725199;88;20180;-76
2022/11/14 17:18:52;;;;;;;1999.90;999.90;;;8.80;99.90;;;;;;6732380;88;20235;-77
2022/11/14 17:28:53;;;;;;;1999.90;999.90;;;8.80;99.90;;;;;;6717450;88;20535;-76
2022/11/14 17:38:55;;;;;;;1999.90;999.90;;;8.70;99.90;;;;;;6722365;88;20656;-75
2022/11/14 17:48:57;;;;;;;1999.90;999.90;;;8.70;99.90;;;;;;6728897;88;20549;-76
2022/11/14 17:58:57;;;;;;;1999.90;999.90;;;8.70;99.90;;;;;;6724697;87;20671;-77
2022/11/14 18:09:03;;;;;;;1999.90;999.90;;;8.60;99.90;;;;;;6734401;88;20253;-77
2022/11/14 18:19:04;;;;;;;1999.90;999.90;;;8.50;99.90;;;;;;6739925;88;20306;-76
2022/11/14 18:29:04;;;;;;;1999.90;999.90;;;8.40;99.90;;;;;;6733120;88;20263;-76
2022/11/14 18:39:05;;;;;;;1999.90;999.90;;;8.30;99.90;;;;;;6729129;88;20188;-76
2022/11/14 18:49:06;;;;;;;1999.90;999.90;;;8.30;99.90;;;;;;6728309;88;20233;-76
2022/11/14 18:59:07;;;;;;;1999.90;999.90;;;8.20;99.90;;;;;;6728451;88;21152;-77
2022/11/14 19:09:12;;;;;;;1999.90;999.90;;;8.20;99.90;;;;;;6732204;88;20637;-76
2022/11/14 19:19:13;;;;;;;1999.90;999.90;;;8.10;99.90;;;;;;6728789;88;20213;-77
2022/11/14 19:29:13;;;;;;;1999.90;999.90;;;8.20;99.90;;;;;;6734631;87;20221;-77
2022/11/14 19:39:14;;;;;;;1999.90;999.90;;;8.30;99.90;;;;;;6742510;88;20230;-78
2022/11/14 19:49:55;;;;;;;1999.90;999.90;;;8.30;99.90;;;;;;6746249;76;20754;-80
2022/11/14 19:59:56;;;;;;;1999.90;999.90;;;8.40;99.90;;;;;;6679681;88;20187;-81
2022/11/14 20:09:56;;;;;;;1999.90;999.90;;;8.60;99.90;;;;;;6686870;89;20229;-81
2022/11/14 20:19:57;;;;;;;1999.90;999.90;;;8.70;99.90;;;;;;6677353;89;20186;-81
2022/11/14 20:29:57;;;;;;;1999.90;999.90;;;8.80;99.90;;;;;;6677713;89;20211;-81
2022/11/14 20:39:58;;;;;;;1999.90;999.90;;;8.90;99.90;;;;;;6661962;89;20189;-81
2022/11/14 20:49:58;;;;;;;1999.90;999.90;;;9.00;99.90;;;;;;6661626;89;20246;-81
2022/11/14 20:59:59;;;;;;;1999.90;999.90;;;9.20;99.90;;;;;;6677595;89;20213;-82
2022/11/14 21:20:19;;;;;;;1999.90;999.90;;;9.40;99.90;;;;;;6683837;88;20161;-82
2022/11/14 21:30:19;;;;;;;1999.90;999.90;;;9.50;99.90;;;;;;6696369;88;20193;-82
2022/11/14 21:40:20;;;;;;;1999.90;999.90;;;9.50;99.90;;;;;;6704196;88;20877;-83
2022/11/14 21:50:20;;;;;;;1999.90;999.90;;;9.60;99.90;;;;;;6713251;88;20313;-80
2022/11/14 22:00:21;;;;;;;1999.90;999.90;;;9.80;99.90;;;;;;6694505;87;20172;-81
2022/11/14 22:10:21;;;;;;;1999.90;999.90;;;9.90;99.90;;;;;;6677351;89;20177;-80
2022/11/14 22:20:22;;;;;;;1999.90;999.90;;;10.10;99.90;;;;;;6676383;88;20953;-81
2022/11/14 22:30:22;;;;;;;1999.90;999.90;;;10.20;99.90;;;;;;6691602;88;20180;-81
2022/11/14 22:40:23;;;;;;;1999.90;999.90;;;10.30;99.90;;;;;;6696353;88;20264;-80
2022/11/14 22:50:24;;;;;;;1999.90;999.90;;;10.30;99.90;;;;;;6691664;88;20231;-81
2022/11/14 23:00:24;;;;;;;1999.90;999.90;;;10.30;99.90;;;;;;6700009;88;20267;-81
2022/11/14 23:10:25;;;;;;;1999.90;999.90;;;10.40;99.90;;;;;;6697785;88;20172;-81
2022/11/14 23:20:26;;;;;;;1999.90;999.90;;;10.50;99.90;;;;;;6698507;88;20183;-81
2022/11/14 23:30:27;;;;;;;1999.90;999.90;;;10.80;99.90;;;;;;6678696;88;20179;-81
2022/11/14 23:40:27;;;;;;;1999.90;999.90;;;11.00;99.90;;;;;;6646375;88;20680;-80
2022/11/14 23:50:28;;;;;;;1999.90;999.90;;;10.90;99.90;;;;;;6705385;88;20667;-81
